Time,TemperatureF,DewpointF,PressureIn,WindDirection,WindDirectionDegrees,WindSpeedMPH,WindSpeedGustMPH,Humidity,HourlyPrecipIn,Conditions,Clouds,dailyrainin,SoftwareType,DateUTC
2013-11-27 00:00:00,45.1,42.0,30.01,ESE,115,0.0,1.0,87,0.00,,,0.01,weatherlink.com 1.10,2013-11-27 08:00:00,
2013-11-27 00:15:00,44.7,41.0,30.00,ESE,115,0.0,0.0,87,0.00,,,0.00,weatherlink.com 1.10,2013-11-27 08:15:00,
2013-11-27 00:30:00,44.5,41.0,30.00,ESE,115,0.0,1.0,88,0.00,,,0.00,weatherlink.com 1.10,2013-11-27 08:30:00,
2013-11-27 00:45:00,44.4,41.0,30.00,ESE,115,0.0,0.0,88,0.00,,,0.00,weatherlink.com 1.10,2013-11-27 08:45:00,
2013-11-27 01:00:00,44.7,41.0,29.99,ESE,115,0.0,1.0,88,0.00,,,0.00,weatherlink.com 1.10,2013-11-27 09:00:00,
2013-11-27 01:15:00,44.7,41.0,29.99,ESE,115,0.0,0.0,88,0.00,,,0.00,weatherlink.com 1.10,2013-11-27 09:15:00,
2013-11-27 01:30:00,44.3,41.0,29.99,ESE,115,0.0,0.0,88,0.00,,,0.00,weatherlink.com 1.10,2013-11-27 09:30:00,
2013-11-27 01:45:00,43.9,41.0,29.98,ESE,115,0.0,1.0,88,0.00,,,0.00,weatherlink.com 1.10,2013-11-27 09:45:00,
2013-11-27 02:00:00,43.3,40.0,29.98,ESE,115,0.0,0.0,89,0.00,,,0.00,weatherlink.com 1.10,2013-11-27 10:00:00,
2013-11-27 02:15:00,43.0,40.0,29.98,ESE,115,0.0,1.0,89,0.00,,,0.00,weatherlink.com 1.10,2013-11-27 10:15:00,
2013-11-27 02:30:00,42.5,39.0,29.98,ESE,115,0.0,0.0,88,0.00,,,0.00,weatherlink.com 1.10,2013-11-27 10:30:00,
2013-11-27 02:45:00,42.2,39.0,29.97,ESE,115,0.0,0.0,89,0.00,,,0.00,weatherlink.com 1.10,2013-11-27 10:45:00,
2013-11-27 03:00:00,41.8,39.0,29.96,ESE,115,0.0,0.0,89,0.00,,,0.00,weatherlink.com 1.10,2013-11-27 11:00:00,
2013-11-27 03:15:00,41.6,39.0,29.96,ESE,115,0.0,0.0,89,0.00,,,0.00,weatherlink.com 1.10,2013-11-27 11:15:00,
2013-11-27 03:30:00,41.4,39.0,29.95,ESE,115,0.0,0.0,90,0.00,,,0.00,weatherlink.com 1.10,2013-11-27 11:30:00,
2013-11-27 03:45:00,41.2,38.0,29.95,ESE,115,0.0,1.0,89,0.00,,,0.00,weatherlink.com 1.10,2013-11-27 11:45:00,
2013-11-27 04:00:00,41.0,38.0,29.94,ESE,115,0.0,0.0,90,0.00,,,0.00,weatherlink.com 1.10,2013-11-27 12:00:00,
2013-11-27 04:15:00,40.9,39.0,29.94,ESE,115,0.0,0.0,91,0.00,,,0.00,weatherlink.com 1.10,2013-11-27 12:15:00,
2013-11-27 04:30:00,41.1,39.0,29.93,ESE,115,0.0,0.0,92,0.00,,,0.00,weatherlink.com 1.10,2013-11-27 12:30:00,
2013-11-27 04:45:00,41.1,39.0,29.93,ESE,115,0.0,0.0,91,0.00,,,0.00,weatherlink.com 1.10,2013-11-27 12:45:00,
2013-11-27 05:00:00,41.4,39.0,29.93,ESE,115,0.0,1.0,92,0.00,,,0.00,weatherlink.com 1.10,2013-11-27 13:00:00,
2013-11-27 05:15:00,41.5,39.0,29.93,ESE,115,0.0,0.0,91,0.00,,,0.00,weatherlink.com 1.10,2013-11-27 13:15:00,
2013-11-27 05:30:00,41.6,39.0,29.93,ESE,115,0.0,1.0,91,0.00,,,0.00,weatherlink.com 1.10,2013-11-27 13:30:00,
2013-11-27 05:46:00,41.3,39.0,29.93,ESE,116,0.0,1.0,91,0.00,,,0.00,weatherlink.com 1.10,2013-11-27 13:46:00,
2013-11-27 06:01:00,41.1,39.0,29.93,ESE,116,0.0,1.0,91,0.00,,,0.00,weatherlink.com 1.10,2013-11-27 14:01:00,
2013-11-27 06:16:00,41.0,39.0,29.93,ESE,116,0.0,1.0,91,0.00,,,0.00,weatherlink.com 1.10,2013-11-27 14:16:00,
2013-11-27 06:31:00,40.9,39.0,29.93,ESE,116,0.0,1.0,92,0.00,,,0.00,weatherlink.com 1.10,2013-11-27 14:31:00,
2013-11-27 06:46:00,41.0,39.0,29.93,ESE,116,0.0,1.0,92,0.00,,,0.00,weatherlink.com 1.10,2013-11-27 14:46:00,
2013-11-27 07:01:00,40.9,39.0,29.92,ESE,116,0.0,0.0,92,0.00,,,0.00,weatherlink.com 1.10,2013-11-27 15:01:00,
2013-11-27 07:16:00,41.4,40.0,29.92,ESE,116,0.0,1.0,93,0.00,,,0.00,weatherlink.com 1.10,2013-11-27 15:16:00,
2013-11-27 07:31:00,42.4,41.0,29.92,ESE,116,0.0,1.0,93,0.00,,,0.00,weatherlink.com 1.10,2013-11-27 15:31:00,
2013-11-27 07:46:00,42.9,41.0,29.92,ESE,116,0.0,1.0,92,0.00,,,0.00,weatherlink.com 1.10,2013-11-27 15:46:00,
2013-11-27 08:01:00,43.8,42.0,29.92,ESE,116,0.0,1.0,92,0.00,,,0.00,weatherlink.com 1.10,2013-11-27 16:01:00,
2013-11-27 08:16:00,45.5,43.0,29.93,ESE,116,0.0,0.0,90,0.00,,,0.00,weatherlink.com 1.10,2013-11-27 16:16:00,
2013-11-27 08:31:00,48.5,44.0,29.93,ESE,116,0.0,0.0,84,0.00,,,0.00,weatherlink.com 1.10,2013-11-27 16:31:00,
2013-11-27 08:46:00,51.4,44.0,29.92,South,184,1.0,3.0,77,0.00,,,0.00,weatherlink.com 1.10,2013-11-27 16:46:00,
2013-11-27 09:01:00,53.1,44.0,29.92,SE,124,0.0,2.0,72,0.00,,,0.00,weatherlink.com 1.10,2013-11-27 17:01:00,
2013-11-27 09:16:00,54.4,44.0,29.92,SSE,167,0.0,2.0,69,0.00,,,0.00,weatherlink.com 1.10,2013-11-27 17:16:00,
2013-11-27 09:31:00,55.5,45.0,29.92,SE,139,0.0,2.0,67,0.00,,,0.00,weatherlink.com 1.10,2013-11-27 17:31:00,
2013-11-27 09:46:00,56.6,45.0,29.92,SW,220,1.0,2.0,66,0.00,,,0.00,weatherlink.com 1.10,2013-11-27 17:46:00,
2013-11-27 10:01:00,57.1,45.0,29.92,SE,144,0.0,2.0,64,0.00,,,0.00,weatherlink.com 1.10,2013-11-27 18:01:00,
2013-11-27 10:16:00,58.6,44.0,29.91,East,91,1.0,2.0,59,0.00,,,0.00,weatherlink.com 1.10,2013-11-27 18:16:00,
2013-11-27 10:31:00,60.1,44.0,29.91,ESE,123,1.0,2.0,56,0.00,,,0.00,weatherlink.com 1.10,2013-11-27 18:31:00,
2013-11-27 10:46:00,60.1,44.0,29.90,SSE,168,0.0,2.0,55,0.00,,,0.00,weatherlink.com 1.10,2013-11-27 18:46:00,
2013-11-27 11:01:00,60.2,44.0,29.90,South,179,0.0,3.0,55,0.00,,,0.00,weatherlink.com 1.10,2013-11-27 19:01:00,
2013-11-27 11:16:00,60.2,44.0,29.89,SW,224,1.0,2.0,56,0.00,,,0.00,weatherlink.com 1.10,2013-11-27 19:16:00,
2013-11-27 11:31:00,59.8,44.0,29.88,SSE,165,0.0,2.0,56,0.00,,,0.00,weatherlink.com 1.10,2013-11-27 19:31:00,
2013-11-27 11:46:00,60.2,45.0,29.88,SSE,164,0.0,1.0,57,0.00,,,0.00,weatherlink.com 1.10,2013-11-27 19:46:00,
2013-11-27 12:02:00,62.1,45.0,29.87,SW,227,0.0,3.0,53,0.00,,,0.00,weatherlink.com 1.10,2013-11-27 20:02:00,
2013-11-27 12:17:00,62.5,44.0,29.86,South,181,2.0,5.0,52,0.00,,,0.00,weatherlink.com 1.10,2013-11-27 20:17:00,
2013-11-27 12:32:00,62.2,44.0,29.86,East,101,2.0,3.0,52,0.00,,,0.00,weatherlink.com 1.10,2013-11-27 20:32:00,
2013-11-27 12:47:00,62.6,44.0,29.85,South,169,1.0,4.0,50,0.00,,,0.00,weatherlink.com 1.10,2013-11-27 20:47:00,
2013-11-27 13:02:00,64.0,45.0,29.84,SW,217,1.0,4.0,51,0.00,,,0.00,weatherlink.com 1.10,2013-11-27 21:02:00,
2013-11-27 13:17:00,64.4,45.0,29.84,NE,53,0.0,5.0,50,0.00,,,0.00,weatherlink.com 1.10,2013-11-27 21:17:00,
2013-11-27 13:32:00,64.5,45.0,29.83,SSW,212,1.0,3.0,49,0.00,,,0.00,weatherlink.com 1.10,2013-11-27 21:32:00,
2013-11-27 13:47:00,64.3,45.0,29.82,SSW,195,1.0,3.0,49,0.00,,,0.00,weatherlink.com 1.10,2013-11-27 21:47:00,
2013-11-27 14:02:00,64.1,45.0,29.82,SW,226,1.0,4.0,50,0.00,,,0.00,weatherlink.com 1.10,2013-11-27 22:02:00,
2013-11-27 14:17:00,63.9,45.0,29.82,SSE,165,2.0,3.0,50,0.00,,,0.00,weatherlink.com 1.10,2013-11-27 22:17:00,
2013-11-27 14:32:00,63.7,45.0,29.82,SW,226,0.0,3.0,51,0.00,,,0.00,weatherlink.com 1.10,2013-11-27 22:32:00,
2013-11-27 14:47:00,63.5,45.0,29.82,SSE,161,1.0,3.0,51,0.00,,,0.00,weatherlink.com 1.10,2013-11-27 22:47:00,
2013-11-27 15:02:00,62.3,45.0,29.82,SW,217,1.0,2.0,54,0.00,,,0.00,weatherlink.com 1.10,2013-11-27 23:02:00,
2013-11-27 15:17:00,61.3,45.0,29.81,SW,218,0.0,1.0,56,0.00,,,0.00,weatherlink.com 1.10,2013-11-27 23:17:00,
2013-11-27 15:32:00,60.5,45.0,29.81,SSW,197,0.0,1.0,57,0.00,,,0.00,weatherlink.com 1.10,2013-11-27 23:32:00,
2013-11-27 15:47:00,60.0,44.0,29.81,SW,229,0.0,2.0,57,0.00,,,0.00,weatherlink.com 1.10,2013-11-27 23:47:00,
2013-11-27 16:02:00,59.6,45.0,29.81,SSW,192,0.0,1.0,58,0.00,,,0.00,weatherlink.com 1.10,2013-11-28 00:02:00,
2013-11-27 16:17:00,59.1,45.0,29.81,SSW,209,0.0,2.0,60,0.00,,,0.00,weatherlink.com 1.10,2013-11-28 00:17:00,
2013-11-27 16:32:00,58.2,45.0,29.81,SW,226,0.0,1.0,62,0.00,,,0.00,weatherlink.com 1.10,2013-11-28 00:32:00,
2013-11-27 16:47:00,56.2,45.0,29.81,SW,226,0.0,1.0,66,0.00,,,0.00,weatherlink.com 1.10,2013-11-28 00:47:00,
2013-11-27 17:02:00,54.7,45.0,29.81,SW,226,0.0,1.0,70,0.00,,,0.00,weatherlink.com 1.10,2013-11-28 01:02:00,
2013-11-27 17:17:00,53.6,45.0,29.82,SW,226,0.0,0.0,73,0.00,,,0.00,weatherlink.com 1.10,2013-11-28 01:17:00,
2013-11-27 17:32:00,52.4,45.0,29.82,SW,226,0.0,0.0,75,0.00,,,0.00,weatherlink.com 1.10,2013-11-28 01:32:00,
2013-11-27 17:47:00,51.3,44.0,29.82,SW,226,0.0,1.0,77,0.00,,,0.00,weatherlink.com 1.10,2013-11-28 01:47:00,
2013-11-27 18:02:00,50.5,44.0,29.82,SW,226,0.0,1.0,79,0.00,,,0.00,weatherlink.com 1.10,2013-11-28 02:02:00,
2013-11-27 18:17:00,50.1,44.0,29.82,SW,226,0.0,1.0,79,0.00,,,0.00,weatherlink.com 1.10,2013-11-28 02:17:00,
2013-11-27 18:32:00,49.6,44.0,29.82,SW,226,0.0,1.0,80,0.00,,,0.00,weatherlink.com 1.10,2013-11-28 02:32:00,
2013-11-27 18:47:00,49.3,44.0,29.82,SW,226,0.0,0.0,81,0.00,,,0.00,weatherlink.com 1.10,2013-11-28 02:47:00,
2013-11-27 19:02:00,48.8,44.0,29.82,SW,226,0.0,0.0,82,0.00,,,0.00,weatherlink.com 1.10,2013-11-28 03:02:00,
2013-11-27 19:17:00,48.2,43.0,29.82,SW,226,0.0,0.0,82,0.00,,,0.00,weatherlink.com 1.10,2013-11-28 03:17:00,
2013-11-27 19:32:00,47.7,43.0,29.82,SW,226,0.0,0.0,83,0.00,,,0.00,weatherlink.com 1.10,2013-11-28 03:32:00,
2013-11-27 19:47:00,47.2,43.0,29.82,SW,226,0.0,0.0,84,0.00,,,0.00,weatherlink.com 1.10,2013-11-28 03:47:00,
2013-11-27 20:02:00,46.9,43.0,29.82,SW,226,0.0,0.0,86,0.00,,,0.00,weatherlink.com 1.10,2013-11-28 04:02:00,
2013-11-27 20:17:00,46.7,43.0,29.82,SW,226,0.0,0.0,86,0.00,,,0.00,weatherlink.com 1.10,2013-11-28 04:17:00,
2013-11-27 20:32:00,47.3,44.0,29.82,SW,226,0.0,1.0,87,0.00,,,0.00,weatherlink.com 1.10,2013-11-28 04:32:00,
2013-11-27 20:47:00,47.6,44.0,29.83,SW,226,0.0,0.0,86,0.00,,,0.00,weatherlink.com 1.10,2013-11-28 04:47:00,
2013-11-27 21:02:00,48.1,44.0,29.83,SW,226,0.0,0.0,86,0.00,,,0.00,weatherlink.com 1.10,2013-11-28 05:02:00,
2013-11-27 21:17:00,48.1,44.0,29.82,SW,226,0.0,0.0,85,0.00,,,0.00,weatherlink.com 1.10,2013-11-28 05:17:00,
2013-11-27 21:32:00,47.8,44.0,29.83,SW,226,0.0,0.0,85,0.00,,,0.00,weatherlink.com 1.10,2013-11-28 05:32:00,
2013-11-27 21:47:00,47.4,43.0,29.83,SW,226,0.0,0.0,86,0.00,,,0.00,weatherlink.com 1.10,2013-11-28 05:47:00,
2013-11-27 22:02:00,47.6,44.0,29.83,SW,226,0.0,0.0,86,0.00,,,0.00,weatherlink.com 1.10,2013-11-28 06:02:00,
2013-11-27 22:17:00,47.9,44.0,29.83,SW,226,0.0,0.0,86,0.00,,,0.00,weatherlink.com 1.10,2013-11-28 06:17:00,
2013-11-27 22:32:00,48.1,44.0,29.83,SW,226,0.0,0.0,85,0.00,,,0.00,weatherlink.com 1.10,2013-11-28 06:32:00,
2013-11-27 22:47:00,48.2,44.0,29.83,SW,226,0.0,0.0,84,0.00,,,0.00,weatherlink.com 1.10,2013-11-28 06:47:00,
2013-11-27 23:02:00,47.6,43.0,29.83,SW,226,0.0,0.0,84,0.00,,,0.00,weatherlink.com 1.10,2013-11-28 07:02:00,
2013-11-27 23:17:00,47.1,43.0,29.83,SW,226,0.0,0.0,84,0.00,,,0.00,weatherlink.com 1.10,2013-11-28 07:17:00,
2013-11-27 23:32:00,46.4,42.0,29.83,SW,226,0.0,0.0,85,0.00,,,0.00,weatherlink.com 1.10,2013-11-28 07:32:00,
2013-11-27 23:47:00,45.7,42.0,29.83,SW,226,0.0,0.0,86,0.00,,,0.00,weatherlink.com 1.10,2013-11-28 07:47:00,